Time,TemperatureF,DewpointF,PressureIn,WindDirection,WindDirectionDegrees,WindSpeedMPH,WindSpeedGustMPH,Humidity,HourlyPrecipIn,Conditions,Clouds,dailyrainin,SoftwareType,DateUTC
2013-02-08 00:03:00,30.0,27.4,30.07,WSW,255,0.0,0.0,90,0.00,,,0.00,Wunderground v.1.15,2013-02-08 07:03:00,
2013-02-08 00:09:00,29.9,27.6,30.07,WSW,255,0.0,0.0,91,0.00,,,0.00,Wunderground v.1.15,2013-02-08 07:09:00,
2013-02-08 00:14:00,29.6,27.0,30.08,WSW,255,0.0,0.0,90,0.00,,,0.00,Wunderground v.1.15,2013-02-08 07:14:00,
2013-02-08 00:20:00,29.1,26.5,30.08,WSW,256,0.0,0.0,90,0.00,,,0.00,Wunderground v.1.15,2013-02-08 07:20:00,
2013-02-08 00:25:00,28.9,26.6,30.08,WSW,255,0.0,0.0,91,0.00,,,0.00,Wunderground v.1.15,2013-02-08 07:25:00,
2013-02-08 00:31:00,28.6,26.3,30.08,WSW,255,0.0,0.0,91,0.00,,,0.00,Wunderground v.1.15,2013-02-08 07:31:00,
2013-02-08 00:37:00,28.4,26.1,30.08,WSW,255,0.0,0.0,91,0.00,,,0.00,Wunderground v.1.15,2013-02-08 07:37:00,
2013-02-08 00:43:00,28.3,26.3,30.08,WSW,255,0.0,0.0,92,0.00,,,0.00,Wunderground v.1.15,2013-02-08 07:43:00,
2013-02-08 00:48:00,28.3,26.3,30.09,WSW,255,0.0,0.0,92,0.00,,,0.00,Wunderground v.1.15,2013-02-08 07:48:00,
2013-02-08 00:54:00,28.5,26.7,30.08,WSW,255,0.0,1.0,93,0.00,,,0.00,Wunderground v.1.15,2013-02-08 07:54:00,
2013-02-08 01:00:00,28.7,26.9,30.08,WSW,255,0.0,1.0,93,0.00,,,0.00,Wunderground v.1.15,2013-02-08 08:00:00,
2013-02-08 01:06:00,28.7,26.7,30.09,WSW,255,0.0,1.0,92,0.00,,,0.00,Wunderground v.1.15,2013-02-08 08:06:00,
2013-02-08 01:11:00,28.6,26.3,30.09,WSW,255,0.0,0.0,91,0.00,,,0.00,Wunderground v.1.15,2013-02-08 08:11:00,
2013-02-08 01:18:00,28.6,26.6,30.08,WSW,255,0.0,0.0,92,0.00,,,0.00,Wunderground v.1.15,2013-02-08 08:18:00,
2013-02-08 01:23:00,28.7,26.7,30.08,WSW,255,0.0,0.0,92,0.00,,,0.00,Wunderground v.1.15,2013-02-08 08:23:00,
2013-02-08 01:29:00,28.7,26.7,30.08,WSW,255,0.0,1.0,92,0.00,,,0.00,Wunderground v.1.15,2013-02-08 08:29:00,
2013-02-08 01:35:00,28.7,26.7,30.08,WSW,255,0.0,0.0,92,0.00,,,0.00,Wunderground v.1.15,2013-02-08 08:35:00,
2013-02-08 01:40:00,28.8,26.8,30.08,WSW,256,0.0,0.0,92,0.00,,,0.00,Wunderground v.1.15,2013-02-08 08:40:00,
2013-02-08 01:46:00,28.8,26.8,30.08,WSW,255,0.0,0.0,92,0.00,,,0.00,Wunderground v.1.15,2013-02-08 08:46:00,
2013-02-08 01:51:00,28.8,26.8,30.08,WSW,255,0.0,0.0,92,0.00,,,0.00,Wunderground v.1.15,2013-02-08 08:51:00,
2013-02-08 01:57:00,28.9,26.9,30.08,WSW,255,0.0,0.0,92,0.00,,,0.00,Wunderground v.1.15,2013-02-08 08:57:00,
2013-02-08 02:03:00,29.0,27.0,30.08,WSW,255,0.0,2.0,92,0.00,,,0.00,Wunderground v.1.15,2013-02-08 09:03:00,
2013-02-08 02:08:00,29.0,27.0,30.08,WSW,255,1.0,2.0,92,0.00,,,0.00,Wunderground v.1.15,2013-02-08 09:08:00,
2013-02-08 02:14:00,29.1,27.1,30.08,WSW,255,1.0,2.0,92,0.00,,,0.00,Wunderground v.1.15,2013-02-08 09:14:00,
2013-02-08 02:19:00,29.2,27.2,30.08,WSW,256,1.0,2.0,92,0.00,,,0.00,Wunderground v.1.15,2013-02-08 09:19:00,
2013-02-08 02:25:00,29.3,27.0,30.08,WSW,255,0.0,1.0,91,0.00,,,0.00,Wunderground v.1.15,2013-02-08 09:25:00,
2013-02-08 02:30:00,29.3,27.3,30.08,WSW,255,0.0,0.0,92,0.00,,,0.00,Wunderground v.1.15,2013-02-08 09:30:00,
2013-02-08 02:36:00,29.3,27.0,30.08,WSW,255,0.0,0.0,91,0.00,,,0.00,Wunderground v.1.15,2013-02-08 09:36:00,
2013-02-08 02:42:00,29.2,26.9,30.08,WSW,255,0.0,0.0,91,0.00,,,0.00,Wunderground v.1.15,2013-02-08 09:42:00,
2013-02-08 02:48:00,29.1,26.8,30.08,WSW,255,0.0,0.0,91,0.00,,,0.00,Wunderground v.1.15,2013-02-08 09:48:00,
2013-02-08 02:54:00,28.9,26.6,30.08,WSW,255,0.0,0.0,91,0.00,,,0.00,Wunderground v.1.15,2013-02-08 09:54:00,
2013-02-08 03:00:00,28.8,26.5,30.08,WSW,255,0.0,0.0,91,0.00,,,0.00,Wunderground v.1.15,2013-02-08 10:00:00,
2013-02-08 03:05:00,28.7,26.1,30.08,WSW,255,0.0,0.0,90,0.00,,,0.00,Wunderground v.1.15,2013-02-08 10:05:00,
2013-02-08 03:11:00,28.5,26.2,30.08,WSW,255,0.0,0.0,91,0.00,,,0.00,Wunderground v.1.15,2013-02-08 10:11:00,
2013-02-08 03:16:00,28.4,26.1,30.08,WSW,255,0.0,0.0,91,0.00,,,0.00,Wunderground v.1.15,2013-02-08 10:16:00,
2013-02-08 03:21:00,28.2,25.9,30.08,WSW,255,0.0,0.0,91,0.00,,,0.00,Wunderground v.1.15,2013-02-08 10:21:00,
2013-02-08 03:27:00,28.1,25.8,30.08,WSW,255,0.0,0.0,91,0.00,,,0.00,Wunderground v.1.15,2013-02-08 10:27:00,
2013-02-08 03:33:00,27.9,25.3,30.09,WSW,255,0.0,0.0,90,0.00,,,0.00,Wunderground v.1.15,2013-02-08 10:33:00,
2013-02-08 03:39:00,27.6,25.1,30.09,WSW,255,0.0,0.0,90,0.00,,,0.00,Wunderground v.1.15,2013-02-08 10:39:00,
2013-02-08 03:44:00,27.4,24.9,30.09,WSW,255,0.0,0.0,90,0.00,,,0.00,Wunderground v.1.15,2013-02-08 10:44:00,
2013-02-08 03:50:00,27.2,24.7,30.09,WSW,255,0.0,0.0,90,0.00,,,0.00,Wunderground v.1.15,2013-02-08 10:50:00,
2013-02-08 03:56:00,27.1,24.8,30.09,WSW,255,0.0,0.0,91,0.00,,,0.00,Wunderground v.1.15,2013-02-08 10:56:00,
2013-02-08 04:01:00,27.0,24.7,30.09,WSW,255,0.0,0.0,91,0.00,,,0.00,Wunderground v.1.15,2013-02-08 11:01:00,
2013-02-08 04:06:00,27.0,25.0,30.09,WSW,255,0.0,0.0,92,0.00,,,0.00,Wunderground v.1.15,2013-02-08 11:06:00,
2013-02-08 04:12:00,27.1,25.3,30.09,WSW,255,0.0,0.0,93,0.00,,,0.00,Wunderground v.1.15,2013-02-08 11:12:00,
2013-02-08 04:18:00,27.3,25.5,30.09,WSW,255,0.0,0.0,93,0.00,,,0.00,Wunderground v.1.15,2013-02-08 11:18:00,
2013-02-08 04:24:00,27.5,25.7,30.09,WSW,255,0.0,1.0,93,0.00,,,0.00,Wunderground v.1.15,2013-02-08 11:24:00,
2013-02-08 04:30:00,27.5,25.7,30.09,WSW,255,0.0,0.0,93,0.00,,,0.00,Wunderground v.1.15,2013-02-08 11:30:00,
2013-02-08 04:36:00,27.6,25.8,30.09,WSW,255,0.0,0.0,93,0.00,,,0.00,Wunderground v.1.15,2013-02-08 11:36:00,
2013-02-08 04:42:00,27.7,25.9,30.10,WSW,255,0.0,0.0,93,0.00,,,0.00,Wunderground v.1.15,2013-02-08 11:42:00,
2013-02-08 04:48:00,27.8,26.0,30.10,WSW,255,0.0,0.0,93,0.00,,,0.00,Wunderground v.1.15,2013-02-08 11:48:00,
2013-02-08 04:53:00,27.9,26.1,30.10,WSW,255,0.0,1.0,93,0.00,,,0.00,Wunderground v.1.15,2013-02-08 11:53:00,
2013-02-08 04:59:00,27.9,26.1,30.10,WSW,255,0.0,1.0,93,0.00,,,0.00,Wunderground v.1.15,2013-02-08 11:59:00,
2013-02-08 05:04:00,28.0,26.2,30.10,WSW,255,0.0,0.0,93,0.00,,,0.00,Wunderground v.1.15,2013-02-08 12:04:00,
2013-02-08 05:09:00,28.1,26.3,30.10,WSW,255,0.0,0.0,93,0.00,,,0.00,Wunderground v.1.15,2013-02-08 12:09:00,
2013-02-08 05:14:00,28.1,26.3,30.10,WSW,256,0.0,0.0,93,0.00,,,0.00,Wunderground v.1.15,2013-02-08 12:14:00,
2013-02-08 05:20:00,28.2,26.4,30.11,WSW,255,0.0,0.0,93,0.00,,,0.00,Wunderground v.1.15,2013-02-08 12:20:00,
2013-02-08 05:25:00,28.2,26.4,30.11,WSW,255,0.0,0.0,93,0.00,,,0.00,Wunderground v.1.15,2013-02-08 12:25:00,
2013-02-08 05:31:00,28.3,26.5,30.11,WSW,255,0.0,0.0,93,0.00,,,0.00,Wunderground v.1.15,2013-02-08 12:31:00,
2013-02-08 05:37:00,28.4,26.6,30.12,WSW,255,0.0,0.0,93,0.00,,,0.00,Wunderground v.1.15,2013-02-08 12:37:00,
2013-02-08 05:43:00,28.4,26.6,30.12,WSW,255,0.0,0.0,93,0.00,,,0.00,Wunderground v.1.15,2013-02-08 12:43:00,
2013-02-08 05:49:00,28.3,26.3,30.12,WSW,255,0.0,1.0,92,0.00,,,0.00,Wunderground v.1.15,2013-02-08 12:49:00,
2013-02-08 05:55:00,28.3,26.3,30.12,WSW,255,1.0,1.0,92,0.00,,,0.00,Wunderground v.1.15,2013-02-08 12:55:00,
2013-02-08 06:01:00,28.3,26.3,30.12,WSW,255,0.0,0.0,92,0.00,,,0.00,Wunderground v.1.15,2013-02-08 13:01:00,
2013-02-08 06:07:00,28.2,26.2,30.12,WSW,256,0.0,0.0,92,0.00,,,0.00,Wunderground v.1.15,2013-02-08 13:07:00,
2013-02-08 06:13:00,28.0,26.0,30.13,WSW,256,1.0,1.0,92,0.00,,,0.00,Wunderground v.1.15,2013-02-08 13:13:00,
2013-02-08 06:19:00,27.9,25.9,30.13,WSW,255,0.0,1.0,92,0.00,,,0.00,Wunderground v.1.15,2013-02-08 13:19:00,
2013-02-08 06:24:00,27.9,25.9,30.13,WSW,255,0.0,0.0,92,0.00,,,0.00,Wunderground v.1.15,2013-02-08 13:24:00,
2013-02-08 06:30:00,27.8,25.8,30.13,WSW,255,0.0,0.0,92,0.00,,,0.00,Wunderground v.1.15,2013-02-08 13:30:00,
2013-02-08 06:36:00,27.8,25.8,30.13,WSW,256,0.0,0.0,92,0.00,,,0.00,Wunderground v.1.15,2013-02-08 13:36:00,
2013-02-08 06:42:00,27.8,25.8,30.13,WSW,255,0.0,0.0,92,0.00,,,0.00,Wunderground v.1.15,2013-02-08 13:42:00,
2013-02-08 06:47:00,27.8,25.8,30.13,WSW,255,0.0,0.0,92,0.00,,,0.00,Wunderground v.1.15,2013-02-08 13:47:00,
2013-02-08 06:52:00,27.7,25.9,30.13,WSW,255,0.0,0.0,93,0.00,,,0.00,Wunderground v.1.15,2013-02-08 13:52:00,
2013-02-08 06:57:00,27.8,26.0,30.13,WSW,255,0.0,0.0,93,0.00,,,0.00,Wunderground v.1.15,2013-02-08 13:57:00,
2013-02-08 07:02:00,27.9,26.1,30.13,WSW,255,0.0,0.0,93,0.00,,,0.00,Wunderground v.1.15,2013-02-08 14:02:00,
2013-02-08 07:07:00,27.9,26.1,30.13,WSW,255,0.0,0.0,93,0.00,,,0.00,Wunderground v.1.15,2013-02-08 14:07:00,
2013-02-08 07:13:00,27.9,26.1,30.13,WSW,255,0.0,0.0,93,0.00,,,0.00,Wunderground v.1.15,2013-02-08 14:13:00,
2013-02-08 07:19:00,27.9,26.1,30.14,WSW,255,0.0,0.0,93,0.00,,,0.00,Wunderground v.1.15,2013-02-08 14:19:00,
2013-02-08 07:24:00,27.9,26.1,30.14,WSW,255,0.0,0.0,93,0.00,,,0.00,Wunderground v.1.15,2013-02-08 14:24:00,
2013-02-08 07:30:00,27.9,25.9,30.13,WSW,255,0.0,0.0,92,0.00,,,0.00,Wunderground v.1.15,2013-02-08 14:30:00,
2013-02-08 07:35:00,27.9,26.1,30.13,WSW,255,0.0,0.0,93,0.00,,,0.00,Wunderground v.1.15,2013-02-08 14:35:00,
2013-02-08 07:41:00,28.0,26.2,30.14,WSW,255,0.0,0.0,93,0.00,,,0.00,Wunderground v.1.15,2013-02-08 14:41:00,
2013-02-08 07:47:00,28.1,26.3,30.14,WSW,255,0.0,0.0,93,0.00,,,0.00,Wunderground v.1.15,2013-02-08 14:47:00,
2013-02-08 07:52:00,28.1,26.3,30.14,WSW,255,0.0,0.0,93,0.00,,,0.00,Wunderground v.1.15,2013-02-08 14:52:00,
2013-02-08 07:58:00,28.2,26.4,30.13,WSW,255,0.0,0.0,93,0.00,,,0.00,Wunderground v.1.15,2013-02-08 14:58:00,
2013-02-08 08:04:00,28.3,26.5,30.14,WSW,255,0.0,0.0,93,0.00,,,0.00,Wunderground v.1.15,2013-02-08 15:04:00,
2013-02-08 08:09:00,28.3,26.5,30.14,WSW,255,0.0,0.0,93,0.00,,,0.00,Wunderground v.1.15,2013-02-08 15:09:00,
2013-02-08 08:14:00,28.4,26.6,30.14,WSW,255,0.0,0.0,93,0.00,,,0.00,Wunderground v.1.15,2013-02-08 15:14:00,
2013-02-08 08:19:00,28.5,26.7,30.14,WSW,255,0.0,0.0,93,0.00,,,0.00,Wunderground v.1.15,2013-02-08 15:19:00,
2013-02-08 08:25:00,28.5,26.7,30.13,WSW,255,0.0,0.0,93,0.00,,,0.00,Wunderground v.1.15,2013-02-08 15:25:00,
2013-02-08 08:31:00,28.6,26.8,30.13,WSW,255,0.0,0.0,93,0.00,,,0.00,Wunderground v.1.15,2013-02-08 15:31:00,
2013-02-08 08:36:00,28.7,26.9,30.13,WSW,255,0.0,0.0,93,0.00,,,0.00,Wunderground v.1.15,2013-02-08 15:36:00,
2013-02-08 08:41:00,28.7,26.9,30.14,WSW,255,0.0,0.0,93,0.00,,,0.00,Wunderground v.1.15,2013-02-08 15:41:00,
2013-02-08 08:47:00,28.7,26.9,30.14,WSW,255,0.0,0.0,93,0.00,,,0.00,Wunderground v.1.15,2013-02-08 15:47:00,
2013-02-08 08:53:00,28.8,27.0,30.14,WSW,255,0.0,0.0,93,0.00,,,0.00,Wunderground v.1.15,2013-02-08 15:53:00,
2013-02-08 08:59:00,28.9,27.1,30.14,WSW,255,0.0,0.0,93,0.00,,,0.00,Wunderground v.1.15,2013-02-08 15:59:00,
2013-02-08 09:04:00,28.9,27.1,30.14,WSW,255,0.0,0.0,93,0.00,,,0.00,Wunderground v.1.15,2013-02-08 16:04:00,
2013-02-08 09:10:00,29.2,27.2,30.14,WSW,255,0.0,0.0,92,0.00,,,0.00,Wunderground v.1.15,2013-02-08 16:10:00,
2013-02-08 09:16:00,29.9,27.9,30.14,WSW,255,0.0,1.0,92,0.00,,,0.00,Wunderground v.1.15,2013-02-08 16:16:00,
2013-02-08 09:21:00,30.4,28.1,30.14,WSW,255,0.0,0.0,91,0.00,,,0.00,Wunderground v.1.15,2013-02-08 16:21:00,
2013-02-08 09:27:00,30.6,28.6,30.14,WSW,255,0.0,0.0,92,0.00,,,0.00,Wunderground v.1.15,2013-02-08 16:27:00,
2013-02-08 09:32:00,30.8,28.5,30.14,WSW,255,0.0,0.0,91,0.00,,,0.00,Wunderground v.1.15,2013-02-08 16:32:00,
2013-02-08 09:38:00,31.1,28.5,30.14,WSW,255,0.0,1.0,90,0.00,,,0.00,Wunderground v.1.15,2013-02-08 16:38:00,
2013-02-08 09:43:00,31.1,28.5,30.14,WSW,255,0.0,0.0,90,0.00,,,0.00,Wunderground v.1.15,2013-02-08 16:43:00,
2013-02-08 09:49:00,31.2,28.3,30.14,WSW,255,0.0,1.0,89,0.00,,,0.00,Wunderground v.1.15,2013-02-08 16:49:00,
2013-02-08 09:54:00,31.6,28.7,30.14,WSW,255,0.0,0.0,89,0.00,,,0.00,Wunderground v.1.15,2013-02-08 16:54:00,
2013-02-08 10:00:00,31.3,28.2,30.14,WSW,255,0.0,0.0,88,0.00,,,0.00,Wunderground v.1.15,2013-02-08 17:00:00,
2013-02-08 10:06:00,31.6,28.5,30.14,WSW,255,0.0,0.0,88,0.00,,,0.00,Wunderground v.1.15,2013-02-08 17:06:00,
2013-02-08 10:11:00,32.0,28.8,30.14,WSW,255,0.0,0.0,88,0.00,,,0.00,Wunderground v.1.15,2013-02-08 17:11:00,
2013-02-08 10:16:00,31.9,28.8,30.14,WSW,255,0.0,0.0,88,0.00,,,0.00,Wunderground v.1.15,2013-02-08 17:16:00,
2013-02-08 10:22:00,32.0,28.8,30.14,WSW,255,0.0,0.0,88,0.00,,,0.00,Wunderground v.1.15,2013-02-08 17:22:00,
2013-02-08 10:27:00,31.8,28.7,30.14,WSW,255,0.0,0.0,88,0.00,,,0.00,Wunderground v.1.15,2013-02-08 17:27:00,
2013-02-08 10:33:00,31.8,28.9,30.14,WSW,255,0.0,0.0,89,0.00,,,0.00,Wunderground v.1.15,2013-02-08 17:33:00,
2013-02-08 10:38:00,31.8,28.7,30.14,WSW,255,0.0,0.0,88,0.00,,,0.00,Wunderground v.1.15,2013-02-08 17:38:00,
2013-02-08 10:44:00,31.9,29.0,30.14,WSW,255,0.0,0.0,89,0.00,,,0.00,Wunderground v.1.15,2013-02-08 17:44:00,
2013-02-08 10:50:00,32.0,29.1,30.14,WSW,255,0.0,0.0,89,0.00,,,0.00,Wunderground v.1.15,2013-02-08 17:50:00,
2013-02-08 10:55:00,32.3,29.1,30.14,WSW,255,0.0,0.0,88,0.00,,,0.00,Wunderground v.1.15,2013-02-08 17:55:00,
2013-02-08 11:01:00,32.5,29.1,30.14,WSW,255,0.0,0.0,87,0.00,,,0.00,Wunderground v.1.15,2013-02-08 18:01:00,
2013-02-08 11:07:00,32.6,29.2,30.14,WSW,255,0.0,0.0,87,0.00,,,0.00,Wunderground v.1.15,2013-02-08 18:07:00,
2013-02-08 11:13:00,32.5,29.1,30.14,WSW,255,0.0,0.0,87,0.00,,,0.00,Wunderground v.1.15,2013-02-08 18:13:00,
2013-02-08 11:18:00,32.4,29.0,30.14,WSW,255,0.0,0.0,87,0.00,,,0.00,Wunderground v.1.15,2013-02-08 18:18:00,
2013-02-08 11:24:00,32.5,29.1,30.14,WSW,255,0.0,0.0,87,0.00,,,0.00,Wunderground v.1.15,2013-02-08 18:24:00,
2013-02-08 11:29:00,32.7,29.5,30.14,WSW,255,0.0,0.0,88,0.00,,,0.00,Wunderground v.1.15,2013-02-08 18:29:00,
2013-02-08 11:35:00,33.6,30.1,30.14,South,182,0.0,2.0,87,0.00,,,0.00,Wunderground v.1.15,2013-02-08 18:35:00,
2013-02-08 11:40:00,34.0,30.0,30.14,South,182,1.0,1.0,85,0.00,,,0.00,Wunderground v.1.15,2013-02-08 18:40:00,
2013-02-08 11:45:00,33.5,29.8,30.13,South,182,0.0,1.0,86,0.00,,,0.00,Wunderground v.1.15,2013-02-08 18:45:00,
2013-02-08 11:50:00,33.7,29.7,30.13,South,182,0.0,0.0,85,0.00,,,0.00,Wunderground v.1.15,2013-02-08 18:50:00,
2013-02-08 11:56:00,33.5,30.0,30.13,South,182,0.0,1.0,87,0.00,,,0.00,Wunderground v.1.15,2013-02-08 18:56:00,
2013-02-08 12:01:00,34.0,30.3,30.13,South,182,0.0,0.0,86,0.00,,,0.00,Wunderground v.1.15,2013-02-08 19:01:00,
2013-02-08 12:07:00,34.6,30.3,30.13,ENE,74,0.0,1.0,84,0.00,,,0.00,Wunderground v.1.15,2013-02-08 19:07:00,
2013-02-08 12:13:00,35.0,30.7,30.13,ENE,74,0.0,1.0,84,0.00,,,0.00,Wunderground v.1.15,2013-02-08 19:13:00,
2013-02-08 12:18:00,34.9,30.6,30.13,South,177,1.0,5.0,84,0.00,,,0.00,Wunderground v.1.15,2013-02-08 19:18:00,
2013-02-08 12:23:00,35.2,30.6,30.13,South,187,1.0,1.0,83,0.00,,,0.00,Wunderground v.1.15,2013-02-08 19:23:00,
2013-02-08 12:28:00,35.6,30.6,30.12,South,179,2.0,4.0,82,0.00,,,0.00,Wunderground v.1.15,2013-02-08 19:28:00,
2013-02-08 12:33:00,35.2,30.6,30.12,South,184,3.0,3.0,83,0.00,,,0.00,Wunderground v.1.15,2013-02-08 19:33:00,
2013-02-08 12:38:00,35.0,30.4,30.12,SSW,193,3.0,4.0,83,0.00,,,0.00,Wunderground v.1.15,2013-02-08 19:38:00,
2013-02-08 12:43:00,35.5,30.5,30.11,SSW,201,3.0,3.0,82,0.00,,,0.00,Wunderground v.1.15,2013-02-08 19:43:00,
2013-02-08 12:49:00,36.1,31.4,30.11,South,175,2.0,5.0,83,0.00,,,0.00,Wunderground v.1.15,2013-02-08 19:49:00,
2013-02-08 12:55:00,36.7,31.1,30.11,SSW,195,2.0,5.0,80,0.00,,,0.00,Wunderground v.1.15,2013-02-08 19:55:00,
2013-02-08 13:00:00,36.7,31.7,30.11,South,184,2.0,2.0,82,0.00,,,0.00,Wunderground v.1.15,2013-02-08 20:00:00,
2013-02-08 13:05:00,37.0,31.4,30.11,SSE,154,1.0,5.0,80,0.00,,,0.00,Wunderground v.1.15,2013-02-08 20:05:00,
2013-02-08 13:11:00,36.8,30.9,30.10,SSE,154,1.0,1.0,79,0.00,,,0.00,Wunderground v.1.15,2013-02-08 20:11:00,
2013-02-08 13:17:00,36.4,30.8,30.10,SSE,163,0.0,1.0,80,0.00,,,0.00,Wunderground v.1.15,2013-02-08 20:17:00,
2013-02-08 13:23:00,37.0,31.4,30.10,SE,134,1.0,1.0,80,0.00,,,0.00,Wunderground v.1.15,2013-02-08 20:23:00,
2013-02-08 13:29:00,36.7,30.5,30.10,SE,139,1.0,2.0,78,0.00,,,0.00,Wunderground v.1.15,2013-02-08 20:29:00,
2013-02-08 13:34:00,36.5,30.9,30.10,SE,139,0.0,2.0,80,0.00,,,0.00,Wunderground v.1.15,2013-02-08 20:34:00,
2013-02-08 13:39:00,36.5,30.3,30.10,SE,140,0.0,2.0,78,0.00,,,0.00,Wunderground v.1.15,2013-02-08 20:39:00,
2013-02-08 13:45:00,36.3,30.4,30.09,SE,146,0.0,0.0,79,0.00,,,0.00,Wunderground v.1.15,2013-02-08 20:45:00,
2013-02-08 13:50:00,36.2,30.3,30.09,SE,146,0.0,0.0,79,0.00,,,0.00,Wunderground v.1.15,2013-02-08 20:50:00,
2013-02-08 13:56:00,36.2,30.3,30.09,SSW,200,0.0,4.0,79,0.00,,,0.00,Wunderground v.1.15,2013-02-08 20:56:00,
2013-02-08 14:02:00,36.5,30.6,30.09,SSW,200,0.0,0.0,79,0.00,,,0.00,Wunderground v.1.15,2013-02-08 21:02:00,
2013-02-08 14:07:00,36.7,30.5,30.09,SSW,200,0.0,0.0,78,0.00,,,0.00,Wunderground v.1.15,2013-02-08 21:07:00,
2013-02-08 14:13:00,36.8,30.6,30.09,SSW,200,0.0,0.0,78,0.00,,,0.00,Wunderground v.1.15,2013-02-08 21:13:00,
2013-02-08 14:18:00,36.8,30.3,30.09,SSW,200,0.0,3.0,77,0.00,,,0.00,Wunderground v.1.15,2013-02-08 21:18:00,
2013-02-08 14:24:00,36.8,29.6,30.09,South,190,2.0,4.0,75,0.00,,,0.00,Wunderground v.1.15,2013-02-08 21:24:00,
2013-02-08 14:29:00,36.9,29.7,30.08,South,190,1.0,4.0,75,0.00,,,0.00,Wunderground v.1.15,2013-02-08 21:29:00,
2013-02-08 14:35:00,36.9,30.4,30.08,South,190,0.0,1.0,77,0.00,,,0.00,Wunderground v.1.15,2013-02-08 21:35:00,
2013-02-08 14:40:00,36.8,29.9,30.08,South,190,0.0,0.0,76,0.00,,,0.00,Wunderground v.1.15,2013-02-08 21:40:00,
2013-02-08 14:46:00,36.6,29.7,30.08,South,190,0.0,2.0,76,0.00,,,0.00,Wunderground v.1.15,2013-02-08 21:46:00,
2013-02-08 14:51:00,36.6,29.4,30.08,South,190,0.0,0.0,75,0.00,,,0.00,Wunderground v.1.15,2013-02-08 21:51:00,
2013-02-08 14:57:00,36.5,30.0,30.08,South,190,0.0,1.0,77,0.00,,,0.00,Wunderground v.1.15,2013-02-08 21:57:00,
2013-02-08 15:03:00,36.3,30.1,30.07,South,190,0.0,0.0,78,0.00,,,0.00,Wunderground v.1.15,2013-02-08 22:03:00,
2013-02-08 15:09:00,36.2,29.7,30.08,South,190,0.0,0.0,77,0.00,,,0.00,Wunderground v.1.15,2013-02-08 22:09:00,
2013-02-08 15:14:00,36.2,29.7,30.08,South,190,0.0,0.0,77,0.00,,,0.00,Wunderground v.1.15,2013-02-08 22:14:00,
2013-02-08 15:20:00,36.0,29.8,30.07,South,190,0.0,0.0,78,0.00,,,0.00,Wunderground v.1.15,2013-02-08 22:20:00,
2013-02-08 15:26:00,35.9,29.7,30.07,South,190,0.0,0.0,78,0.00,,,0.00,Wunderground v.1.15,2013-02-08 22:26:00,
2013-02-08 15:31:00,35.8,29.3,30.07,South,190,0.0,0.0,77,0.00,,,0.00,Wunderground v.1.15,2013-02-08 22:31:00,
2013-02-08 15:37:00,35.8,29.3,30.07,South,190,0.0,0.0,77,0.00,,,0.00,Wunderground v.1.15,2013-02-08 22:37:00,
2013-02-08 15:43:00,35.8,29.3,30.07,South,190,0.0,0.0,77,0.00,,,0.00,Wunderground v.1.15,2013-02-08 22:43:00,
2013-02-08 15:48:00,35.5,29.9,30.07,South,190,0.0,0.0,80,0.00,,,0.00,Wunderground v.1.15,2013-02-08 22:48:00,
2013-02-08 15:54:00,35.3,29.7,30.07,South,190,0.0,0.0,80,0.00,,,0.00,Wunderground v.1.15,2013-02-08 22:54:00,
2013-02-08 15:59:00,35.2,30.3,30.07,South,190,0.0,0.0,82,0.00,,,0.00,Wunderground v.1.15,2013-02-08 22:59:00,
2013-02-08 16:05:00,35.3,30.4,30.07,South,190,0.0,0.0,82,0.00,,,0.00,Wunderground v.1.15,2013-02-08 23:05:00,
2013-02-08 16:10:00,35.1,30.5,30.07,South,178,0.0,0.0,83,0.00,,,0.00,Wunderground v.1.15,2013-02-08 23:10:00,
2013-02-08 16:15:00,35.2,30.3,30.07,South,180,0.0,1.0,82,0.00,,,0.00,Wunderground v.1.15,2013-02-08 23:15:00,
2013-02-08 16:20:00,35.2,30.3,30.07,South,180,0.0,0.0,82,0.00,,,0.00,Wunderground v.1.15,2013-02-08 23:20:00,
2013-02-08 16:26:00,34.9,30.3,30.07,South,180,0.0,1.0,83,0.00,,,0.00,Wunderground v.1.15,2013-02-08 23:26:00,
2013-02-08 16:32:00,34.8,30.5,30.07,SSW,200,0.0,0.0,84,0.00,,,0.00,Wunderground v.1.15,2013-02-08 23:32:00,
2013-02-08 16:38:00,34.4,30.1,30.06,SSW,200,0.0,0.0,84,0.00,,,0.00,Wunderground v.1.15,2013-02-08 23:38:00,
2013-02-08 16:43:00,34.5,30.2,30.06,SSW,200,0.0,0.0,84,0.00,,,0.00,Wunderground v.1.15,2013-02-08 23:43:00,
2013-02-08 16:49:00,34.7,30.1,30.06,SSW,200,0.0,1.0,83,0.00,,,0.00,Wunderground v.1.15,2013-02-08 23:49:00,
2013-02-08 16:55:00,34.8,29.6,30.06,SSW,200,0.0,2.0,81,0.00,,,0.00,Wunderground v.1.15,2013-02-08 23:55:00,
2013-02-08 17:01:00,34.6,29.1,30.06,SSW,200,0.0,0.0,80,0.00,,,0.00,Wunderground v.1.15,2013-02-09 00:01:00,
2013-02-08 17:07:00,34.2,29.3,30.07,SSW,200,0.0,0.0,82,0.00,,,0.00,Wunderground v.1.15,2013-02-09 00:07:00,
2013-02-08 17:13:00,34.1,29.2,30.06,SSW,200,0.0,0.0,82,0.00,,,0.00,Wunderground v.1.15,2013-02-09 00:13:00,
2013-02-08 17:19:00,34.0,28.8,30.06,SSW,200,0.0,0.0,81,0.00,,,0.00,Wunderground v.1.15,2013-02-09 00:19:00,
2013-02-08 17:24:00,34.1,28.9,30.06,SSW,200,0.0,0.0,81,0.00,,,0.00,Wunderground v.1.15,2013-02-09 00:24:00,
2013-02-08 17:29:00,33.9,28.7,30.06,SSW,200,0.0,0.0,81,0.00,,,0.00,Wunderground v.1.15,2013-02-09 00:29:00,
2013-02-08 17:35:00,33.7,28.8,30.06,SSW,200,0.0,0.0,82,0.00,,,0.00,Wunderground v.1.15,2013-02-09 00:35:00,
2013-02-08 17:41:00,33.7,28.8,30.07,SSW,200,0.0,0.0,82,0.00,,,0.00,Wunderground v.1.15,2013-02-09 00:41:00,
2013-02-08 17:47:00,33.4,28.8,30.07,SSW,200,0.0,0.0,83,0.00,,,0.00,Wunderground v.1.15,2013-02-09 00:47:00,
2013-02-08 17:53:00,33.2,28.9,30.07,SSW,200,0.0,0.0,84,0.00,,,0.00,Wunderground v.1.15,2013-02-09 00:53:00,
2013-02-08 17:59:00,32.7,28.7,30.07,SSW,200,0.0,0.0,85,0.00,,,0.00,Wunderground v.1.15,2013-02-09 00:59:00,
2013-02-08 18:05:00,32.6,28.6,30.07,SSW,200,0.0,0.0,85,0.00,,,0.00,Wunderground v.1.15,2013-02-09 01:05:00,
2013-02-08 18:10:00,32.6,28.9,30.07,SSW,200,0.0,0.0,86,0.00,,,0.00,Wunderground v.1.15,2013-02-09 01:10:00,
2013-02-08 18:16:00,32.3,28.6,30.07,SSW,200,0.0,0.0,86,0.00,,,0.00,Wunderground v.1.15,2013-02-09 01:16:00,
2013-02-08 18:21:00,31.9,28.2,30.07,SSW,200,0.0,0.0,86,0.00,,,0.00,Wunderground v.1.15,2013-02-09 01:21:00,
2013-02-08 18:27:00,31.4,27.7,30.07,SSW,200,0.0,0.0,86,0.00,,,0.00,Wunderground v.1.15,2013-02-09 01:27:00,
2013-02-08 18:33:00,31.2,27.8,30.07,SSW,200,0.0,0.0,87,0.00,,,0.00,Wunderground v.1.15,2013-02-09 01:33:00,
2013-02-08 18:39:00,30.3,26.9,30.08,SSW,200,0.0,1.0,87,0.00,,,0.00,Wunderground v.1.15,2013-02-09 01:39:00,
2013-02-08 18:45:00,30.2,27.1,30.08,SSW,200,0.0,0.0,88,0.00,,,0.00,Wunderground v.1.15,2013-02-09 01:45:00,
2013-02-08 18:51:00,30.4,27.3,30.08,SSW,200,0.0,0.0,88,0.00,,,0.00,Wunderground v.1.15,2013-02-09 01:51:00,
2013-02-08 18:57:00,30.6,27.2,30.08,SSW,200,0.0,1.0,87,0.00,,,0.00,Wunderground v.1.15,2013-02-09 01:57:00,
2013-02-08 19:03:00,30.6,27.2,30.08,SSW,206,0.0,0.0,87,0.00,,,0.00,Wunderground v.1.15,2013-02-09 02:03:00,
2013-02-08 19:08:00,30.5,27.1,30.08,SSW,206,0.0,0.0,87,0.00,,,0.00,Wunderground v.1.15,2013-02-09 02:08:00,
2013-02-08 19:14:00,30.2,26.8,30.08,SSW,206,0.0,2.0,87,0.00,,,0.00,Wunderground v.1.15,2013-02-09 02:14:00,
2013-02-08 19:20:00,29.9,26.5,30.08,SSW,206,0.0,0.0,87,0.00,,,0.00,Wunderground v.1.15,2013-02-09 02:20:00,
2013-02-08 19:26:00,30.5,27.1,30.08,SSW,206,0.0,0.0,87,0.00,,,0.00,Wunderground v.1.15,2013-02-09 02:26:00,
2013-02-08 19:31:00,30.5,27.1,30.08,SSW,206,0.0,0.0,87,0.00,,,0.00,Wunderground v.1.15,2013-02-09 02:31:00,
2013-02-08 19:37:00,30.2,26.8,30.08,SSW,206,0.0,0.0,87,0.00,,,0.00,Wunderground v.1.15,2013-02-09 02:37:00,
2013-02-08 19:42:00,29.4,26.0,30.08,West,281,1.0,3.0,87,0.00,,,0.00,Wunderground v.1.15,2013-02-09 02:42:00,
2013-02-08 19:47:00,29.0,25.9,30.08,West,280,1.0,3.0,88,0.00,,,0.00,Wunderground v.1.15,2013-02-09 02:47:00,
2013-02-08 19:53:00,29.1,26.0,30.08,West,280,0.0,0.0,88,0.00,,,0.00,Wunderground v.1.15,2013-02-09 02:53:00,
2013-02-08 19:59:00,29.5,26.7,30.08,West,280,0.0,0.0,89,0.00,,,0.00,Wunderground v.1.15,2013-02-09 02:59:00,
2013-02-08 20:05:00,29.4,26.6,30.08,West,281,0.0,0.0,89,0.00,,,0.00,Wunderground v.1.15,2013-02-09 03:05:00,
2013-02-08 20:10:00,29.8,27.0,30.09,West,281,0.0,0.0,89,0.00,,,0.00,Wunderground v.1.15,2013-02-09 03:10:00,
2013-02-08 20:15:00,29.9,27.1,30.09,West,280,0.0,0.0,89,0.00,,,0.00,Wunderground v.1.15,2013-02-09 03:15:00,
2013-02-08 20:21:00,29.8,27.0,30.09,West,281,0.0,0.0,89,0.00,,,0.00,Wunderground v.1.15,2013-02-09 03:21:00,
2013-02-08 20:26:00,29.9,27.1,30.08,West,280,0.0,1.0,89,0.00,,,0.00,Wunderground v.1.15,2013-02-09 03:26:00,
2013-02-08 20:32:00,29.5,26.4,30.08,West,280,0.0,0.0,88,0.00,,,0.00,Wunderground v.1.15,2013-02-09 03:32:00,
2013-02-08 20:38:00,30.0,27.2,30.08,West,280,0.0,1.0,89,0.00,,,0.00,Wunderground v.1.15,2013-02-09 03:38:00,
2013-02-08 20:43:00,29.9,26.8,30.09,West,280,0.0,1.0,88,0.00,,,0.00,Wunderground v.1.15,2013-02-09 03:43:00,
2013-02-08 20:49:00,29.9,26.8,30.09,West,281,0.0,1.0,88,0.00,,,0.00,Wunderground v.1.15,2013-02-09 03:49:00,
2013-02-08 20:55:00,29.5,26.4,30.09,West,281,0.0,1.0,88,0.00,,,0.00,Wunderground v.1.15,2013-02-09 03:55:00,
2013-02-08 21:01:00,29.4,26.3,30.09,West,281,0.0,1.0,88,0.00,,,0.00,Wunderground v.1.15,2013-02-09 04:01:00,
2013-02-08 21:06:00,29.5,26.4,30.09,West,280,0.0,1.0,88,0.00,,,0.00,Wunderground v.1.15,2013-02-09 04:06:00,
2013-02-08 21:12:00,29.6,26.2,30.09,West,280,0.0,0.0,87,0.00,,,0.00,Wunderground v.1.15,2013-02-09 04:12:00,
2013-02-08 21:17:00,29.4,25.7,30.09,West,281,0.0,0.0,86,0.00,,,0.00,Wunderground v.1.15,2013-02-09 04:17:00,
2013-02-08 21:23:00,29.2,25.5,30.09,West,281,0.0,1.0,86,0.00,,,0.00,Wunderground v.1.15,2013-02-09 04:23:00,
2013-02-08 21:28:00,28.7,25.0,30.09,West,281,0.0,1.0,86,0.00,,,0.00,Wunderground v.1.15,2013-02-09 04:28:00,
2013-02-08 21:34:00,28.6,24.9,30.09,West,280,0.0,1.0,86,0.00,,,0.00,Wunderground v.1.15,2013-02-09 04:34:00,
2013-02-08 21:39:00,28.5,25.1,30.09,West,281,0.0,1.0,87,0.00,,,0.00,Wunderground v.1.15,2013-02-09 04:39:00,
2013-02-08 21:45:00,28.4,25.0,30.09,West,280,0.0,2.0,87,0.00,,,0.00,Wunderground v.1.15,2013-02-09 04:45:00,
2013-02-08 21:50:00,28.4,25.0,30.09,West,281,0.0,0.0,87,0.00,,,0.00,Wunderground v.1.15,2013-02-09 04:50:00,
2013-02-08 21:56:00,28.4,24.7,30.10,West,280,0.0,1.0,86,0.00,,,0.00,Wunderground v.1.15,2013-02-09 04:56:00,
2013-02-08 22:00:00,28.2,24.3,30.10,West,281,0.0,1.0,85,0.00,,,0.00,Wunderground v.1.15,2013-02-09 05:00:00,
2013-02-08 22:01:00,28.0,24.4,30.10,West,281,0.0,1.0,86,0.00,,,0.00,Wunderground v.1.15,2013-02-09 05:01:00,
2013-02-08 22:02:00,28.0,24.4,30.10,West,280,0.0,1.0,86,0.00,,,0.00,Wunderground v.1.15,2013-02-09 05:02:00,
2013-02-08 22:03:00,27.9,24.3,30.10,West,281,0.0,1.0,86,0.00,,,0.00,Wunderground v.1.15,2013-02-09 05:03:00,
2013-02-08 22:09:00,28.0,26.0,30.10,West,281,0.0,1.0,92,0.00,,,0.00,Wunderground v.1.15,2013-02-09 05:09:00,
2013-02-08 22:14:00,28.0,24.1,30.10,West,281,0.0,1.0,85,0.00,,,0.00,Wunderground v.1.15,2013-02-09 05:14:00,
2013-02-08 22:20:00,28.1,24.2,30.10,West,281,0.0,0.0,85,0.00,,,0.00,Wunderground v.1.15,2013-02-09 05:20:00,
2013-02-08 22:25:00,28.2,24.6,30.10,West,281,0.0,0.0,86,0.00,,,0.00,Wunderground v.1.15,2013-02-09 05:25:00,
2013-02-08 22:30:00,28.7,24.8,30.10,West,281,0.0,0.0,85,0.00,,,0.00,Wunderground v.1.15,2013-02-09 05:30:00,
2013-02-08 22:35:00,28.7,24.5,30.10,West,280,0.0,0.0,84,0.00,,,0.00,Wunderground v.1.15,2013-02-09 05:35:00,
2013-02-08 22:41:00,29.3,24.5,30.10,West,281,0.0,0.0,82,0.00,,,0.00,Wunderground v.1.15,2013-02-09 05:41:00,
2013-02-08 22:47:00,29.7,24.9,30.10,West,281,0.0,0.0,82,0.00,,,0.00,Wunderground v.1.15,2013-02-09 05:47:00,
2013-02-08 22:53:00,29.8,25.0,30.10,West,280,0.0,0.0,82,0.00,,,0.00,Wunderground v.1.15,2013-02-09 05:53:00,
2013-02-08 22:59:00,29.7,24.9,30.10,West,281,0.0,0.0,82,0.00,,,0.00,Wunderground v.1.15,2013-02-09 05:59:00,
2013-02-08 23:05:00,29.7,24.9,30.10,West,280,0.0,0.0,82,0.00,,,0.00,Wunderground v.1.15,2013-02-09 06:05:00,
2013-02-08 23:11:00,29.6,25.4,30.10,West,281,0.0,0.0,84,0.00,,,0.00,Wunderground v.1.15,2013-02-09 06:11:00,
2013-02-08 23:17:00,29.6,25.1,30.09,West,281,0.0,0.0,83,0.00,,,0.00,Wunderground v.1.15,2013-02-09 06:17:00,
2013-02-08 23:23:00,29.6,24.8,30.09,West,280,0.0,1.0,82,0.00,,,0.00,Wunderground v.1.15,2013-02-09 06:23:00,
2013-02-08 23:29:00,29.6,24.5,30.09,West,281,0.0,1.0,81,0.00,,,0.00,Wunderground v.1.15,2013-02-09 06:29:00,
2013-02-08 23:34:00,29.6,24.8,30.09,West,281,0.0,0.0,82,0.00,,,0.00,Wunderground v.1.15,2013-02-09 06:34:00,
2013-02-08 23:40:00,29.4,24.6,30.09,West,281,0.0,0.0,82,0.00,,,0.00,Wunderground v.1.15,2013-02-09 06:40:00,
2013-02-08 23:45:00,29.4,24.6,30.09,West,281,0.0,0.0,82,0.00,,,0.00,Wunderground v.1.15,2013-02-09 06:45:00,
2013-02-08 23:51:00,29.2,23.8,30.10,West,281,0.0,2.0,80,0.00,,,0.00,Wunderground v.1.15,2013-02-09 06:51:00,
2013-02-08 23:57:00,29.3,24.2,30.09,West,280,0.0,2.0,81,0.00,,,0.00,Wunderground v.1.15,2013-02-09 06:57:00,